createdAt,value
2022-09-27T00:00:33.933Z,99171.88
2022-09-27T00:03:00.755Z,99175.78
2022-09-27T00:05:27.587Z,99169.78
2022-09-27T00:07:54.681Z,99160.69
2022-09-27T00:10:21.353Z,99159.84
2022-09-27T00:12:48.508Z,99159.75
2022-09-27T00:15:15.330Z,99148.16
2022-09-27T00:17:42.294Z,99147.97
2022-09-27T00:20:10.157Z,99142.91
2022-09-27T00:22:37.452Z,99138.59
2022-09-27T00:25:07.438Z,99137.94
2022-09-27T00:27:34.182Z,99132.00
2022-09-27T00:30:00.892Z,99126.09
2022-09-27T00:32:27.610Z,99123.72
2022-09-27T00:34:54.460Z,99128.88
2022-09-27T00:37:21.404Z,99123.78
2022-09-27T00:39:48.118Z,99120.41
2022-09-27T00:42:15.362Z,99128.34
2022-09-27T00:44:41.961Z,99124.16
2022-09-27T00:47:22.742Z,99115.78
2022-09-27T00:50:11.602Z,99120.31
2022-09-27T00:53:23.677Z,99114.69
2022-09-27T00:55:57.493Z,99121.25
2022-09-27T00:58:30.556Z,99110.38
2022-09-27T01:01:01.578Z,99105.56
2022-09-27T01:03:52.768Z,99112.84
2022-09-27T01:06:21.351Z,99098.06
2022-09-27T01:08:48.685Z,99090.25
2022-09-27T01:11:37.135Z,99082.66
2022-09-27T01:14:26.620Z,99069.31
2022-09-27T01:17:25.466Z,99074.13
2022-09-27T01:20:10.452Z,99068.38
2022-09-27T01:22:44.425Z,99068.16
2022-09-27T01:26:09.181Z,99064.59
2022-09-27T01:28:56.289Z,99064.50
2022-09-27T01:31:31.755Z,99063.34
2022-09-27T01:34:12.246Z,99058.66
2022-09-27T01:36:47.989Z,99047.72
2022-09-27T01:39:29.452Z,99047.94
2022-09-27T01:42:17.388Z,99054.31
2022-09-27T01:44:58.429Z,99049.94
2022-09-27T01:47:32.144Z,99044.41
2022-09-27T01:50:28.159Z,99048.13
2022-09-27T01:53:01.152Z,99047.50
2022-09-27T01:55:32.766Z,99041.25
2022-09-27T01:58:06.929Z,99035.13
2022-09-27T02:00:36.201Z,99047.72
2022-09-27T02:03:36.059Z,99033.44
2022-09-27T02:06:05.672Z,99038.72
2022-09-27T02:08:41.941Z,99033.37
2022-09-27T02:11:12.955Z,99032.19
2022-09-27T02:13:57.622Z,99020.13
2022-09-27T02:16:48.467Z,99024.50
2022-09-27T02:19:23.972Z,99021.91
2022-09-27T02:22:10.764Z,99019.88
2022-09-27T02:24:40.873Z,99018.13
2022-09-27T02:27:12.618Z,99014.22
2022-09-27T02:29:46.836Z,99010.28
2022-09-27T02:32:13.449Z,99015.78
2022-09-27T02:34:41.282Z,99009.03
2022-09-27T02:37:07.855Z,99013.34
2022-09-27T02:39:34.514Z,99011.47
2022-09-27T02:42:01.224Z,99003.00
2022-09-27T02:44:28.230Z,99008.06
2022-09-27T02:47:01.027Z,99002.28
2022-09-27T02:49:39.477Z,98996.44
2022-09-27T02:52:18.413Z,98992.41
2022-09-27T02:54:49.034Z,98994.59
2022-09-27T02:57:46.167Z,99009.47
2022-09-27T03:00:16.365Z,99008.28
2022-09-27T03:03:12.076Z,99019.91
2022-09-27T03:05:48.301Z,99017.75
2022-09-27T03:08:15.168Z,99006.66
2022-09-27T03:10:42.120Z,99002.28
2022-09-27T03:13:08.696Z,99007.56
2022-09-27T03:15:35.281Z,99005.97
2022-09-27T03:18:02.415Z,99017.59
2022-09-27T03:20:29.647Z,99010.84
2022-09-27T03:22:56.608Z,99004.41
2022-09-27T03:25:23.248Z,98982.75
2022-09-27T03:27:49.880Z,98982.75
2022-09-27T03:30:16.554Z,98988.28
2022-09-27T03:32:46.545Z,98982.19
2022-09-27T03:35:13.320Z,98975.81
2022-09-27T03:37:41.234Z,98963.38
2022-09-27T03:40:08.547Z,98952.16
2022-09-27T03:42:35.294Z,98951.09
2022-09-27T03:45:02.125Z,98951.50
2022-09-27T03:47:28.737Z,98948.59
2022-09-27T03:49:55.358Z,98942.47
2022-09-27T03:52:21.994Z,98940.81
2022-09-27T03:54:48.577Z,98941.22
2022-09-27T03:57:15.155Z,98947.38
2022-09-27T03:59:41.716Z,98956.97
2022-09-27T04:02:08.316Z,98941.63
2022-09-27T04:04:35.018Z,98945.06
2022-09-27T04:07:01.846Z,98939.00
2022-09-27T04:09:28.402Z,98944.72
2022-09-27T04:11:55.264Z,98939.84
2022-09-27T04:14:21.907Z,98933.13
2022-09-27T04:16:49.248Z,98936.47
2022-09-27T04:19:16.025Z,98940.22
2022-09-27T04:21:42.824Z,98933.72
2022-09-27T04:24:11.110Z,98934.50
2022-09-27T04:26:38.211Z,98932.81
2022-09-27T04:29:04.754Z,98936.63
2022-09-27T04:31:31.394Z,98916.44
2022-09-27T04:33:58.954Z,98916.34
2022-09-27T04:36:29.117Z,98923.59
2022-09-27T04:38:56.649Z,98909.75
2022-09-27T04:41:23.735Z,98906.41
2022-09-27T04:43:53.110Z,98905.22
2022-09-27T04:46:23.877Z,98895.19
2022-09-27T04:48:50.890Z,98889.81
2022-09-27T04:51:18.030Z,98884.56
2022-09-27T04:53:45.132Z,98879.59
2022-09-27T04:56:12.790Z,98875.88
2022-09-27T04:58:39.689Z,98883.53
2022-09-27T05:01:07.416Z,98883.84
2022-09-27T05:03:34.009Z,98889.75
2022-09-27T05:06:00.916Z,98897.78
2022-09-27T05:08:27.989Z,98897.66
2022-09-27T05:10:55.396Z,98894.66
2022-09-27T05:13:22.628Z,98875.50
2022-09-27T05:15:49.223Z,98864.25
2022-09-27T05:18:15.848Z,98862.75
2022-09-27T05:20:42.367Z,98856.25
2022-09-27T05:23:08.906Z,98860.84
2022-09-27T05:25:35.635Z,98852.97
2022-09-27T05:28:02.501Z,98848.59
2022-09-27T05:30:29.171Z,98843.13
2022-09-27T05:32:56.168Z,98845.56
2022-09-27T05:35:22.987Z,98852.94
2022-09-27T05:37:53.789Z,98859.47
2022-09-27T05:40:40.310Z,98847.91
2022-09-27T05:43:08.615Z,98841.16
2022-09-27T05:45:35.228Z,98840.66
2022-09-27T05:48:02.134Z,98832.28
2022-09-27T05:50:29.066Z,98822.28
2022-09-27T05:52:55.953Z,98830.41
2022-09-27T05:55:22.699Z,98824.69
2022-09-27T05:58:03.135Z,98826.19
2022-09-27T06:00:39.113Z,98822.28
2022-09-27T06:03:06.930Z,98827.47
2022-09-27T06:05:37.902Z,98828.19
2022-09-27T06:08:06.344Z,98824.63
2022-09-27T06:10:33.410Z,98822.16
2022-09-27T06:13:05.280Z,98821.31
2022-09-27T06:15:33.261Z,98822.38
2022-09-27T06:18:11.757Z,98831.62
2022-09-27T06:20:39.285Z,98837.72
2022-09-27T06:23:06.110Z,98835.06
2022-09-27T06:25:32.716Z,98833.28
2022-09-27T06:27:59.468Z,98833.59
2022-09-27T06:30:28.767Z,98819.78
2022-09-27T06:33:02.238Z,98821.53
2022-09-27T06:35:32.778Z,98821.28
2022-09-27T06:38:04.861Z,98818.72
2022-09-27T06:40:33.825Z,98818.63
2022-09-27T06:43:07.127Z,98809.75
2022-09-27T06:45:36.578Z,98805.56
2022-09-27T06:48:06.394Z,98819.87
2022-09-27T06:50:34.247Z,98815.00
2022-09-27T06:53:01.210Z,98819.03
2022-09-27T06:55:28.176Z,98822.97
2022-09-27T06:58:17.115Z,98829.94
2022-09-27T07:00:43.755Z,98833.72
2022-09-27T07:03:11.580Z,98829.00
2022-09-27T07:05:39.543Z,98817.63
2022-09-27T07:08:06.114Z,98819.91
2022-09-27T07:10:35.240Z,98828.13
2022-09-27T07:13:09.396Z,98827.47
2022-09-27T07:15:37.658Z,98824.91
2022-09-27T07:18:05.263Z,98822.28
2022-09-27T07:20:32.744Z,98830.72
2022-09-27T07:22:59.443Z,98831.12
2022-09-27T07:25:26.431Z,98831.91
2022-09-27T07:27:53.036Z,98831.00
2022-09-27T07:30:20.226Z,98845.00
2022-09-27T07:32:47.298Z,98835.03
2022-09-27T07:35:15.672Z,98844.78
2022-09-27T07:37:43.174Z,98842.31
2022-09-27T07:40:10.049Z,98853.41
2022-09-27T07:42:41.897Z,98855.16
2022-09-27T07:45:09.544Z,98849.28
2022-09-27T07:47:38.174Z,98844.59
2022-09-27T07:50:05.752Z,98841.31
2022-09-27T07:52:38.864Z,98837.38
2022-09-27T07:55:05.897Z,98824.78
2022-09-27T07:57:32.513Z,98830.09
2022-09-27T07:59:59.180Z,98838.06
2022-09-27T08:02:26.094Z,98833.31
2022-09-27T08:04:53.357Z,98816.53
2022-09-27T08:07:19.939Z,98821.06
2022-09-27T08:09:46.562Z,98828.34
2022-09-27T08:12:13.134Z,98826.28
2022-09-27T08:14:45.010Z,98828.56
2022-09-27T08:17:15.141Z,98828.34
2022-09-27T08:19:41.966Z,98827.78
2022-09-27T08:22:08.587Z,98827.75
2022-09-27T08:24:35.242Z,98815.75
2022-09-27T08:27:10.734Z,98808.28
2022-09-27T08:29:42.908Z,98805.94
2022-09-27T08:32:10.195Z,98806.28
2022-09-27T08:34:37.077Z,98809.66
2022-09-27T08:37:04.023Z,98815.03
2022-09-27T08:39:31.306Z,98804.53
2022-09-27T08:42:04.122Z,98806.69
2022-09-27T08:44:34.190Z,98807.38
2022-09-27T08:47:06.930Z,98794.19
2022-09-27T08:49:33.620Z,98809.19
2022-09-27T08:52:01.243Z,98800.25
2022-09-27T08:54:32.891Z,98803.28
2022-09-27T08:57:05.196Z,98799.50
2022-09-27T08:59:36.241Z,98804.53
2022-09-27T09:02:03.672Z,98803.72
2022-09-27T09:04:35.426Z,98806.38
2022-09-27T09:07:14.163Z,98805.59
2022-09-27T09:09:48.801Z,98805.97
2022-09-27T09:12:49.090Z,98800.62
2022-09-27T09:15:18.490Z,98816.94
2022-09-27T09:18:03.179Z,98798.25
2022-09-27T09:21:02.573Z,98802.47
2022-09-27T09:23:55.608Z,98793.16
2022-09-27T09:26:25.273Z,98793.75
2022-09-27T09:29:07.528Z,98789.03
2022-09-27T09:31:48.179Z,98783.28
2022-09-27T09:34:25.788Z,98781.56
2022-09-27T09:36:53.447Z,98779.97
2022-09-27T09:39:20.076Z,98784.41
2022-09-27T09:41:46.851Z,98780.91
2022-09-27T09:44:16.609Z,98770.19
2022-09-27T09:46:46.766Z,98773.50
2022-09-27T09:49:17.079Z,98769.56
2022-09-27T09:51:47.813Z,98765.84
2022-09-27T09:54:14.519Z,98760.16
2022-09-27T09:56:45.836Z,98760.59
2022-09-27T09:59:39.093Z,98765.66
2022-09-27T10:02:35.300Z,98761.34
2022-09-27T10:05:07.493Z,98762.97
2022-09-27T10:07:36.771Z,98754.50
2022-09-27T10:10:05.065Z,98757.47
2022-09-27T10:12:31.825Z,98764.06
2022-09-27T10:15:01.375Z,98752.09
2022-09-27T10:17:34.664Z,98750.63
2022-09-27T10:20:02.459Z,98748.63
2022-09-27T10:22:36.844Z,98745.88
2022-09-27T10:25:07.195Z,98746.31
2022-09-27T10:27:42.688Z,98740.09
2022-09-27T10:30:35.760Z,98740.75
2022-09-27T10:33:07.940Z,98741.53
2022-09-27T10:35:39.589Z,98753.41
2022-09-27T10:38:22.682Z,98739.91
2022-09-27T10:40:50.684Z,98737.66
2022-09-27T10:43:34.357Z,98737.91
2022-09-27T10:46:05.074Z,98737.84
2022-09-27T10:48:31.881Z,98734.50
2022-09-27T10:51:02.713Z,98733.00
2022-09-27T10:53:31.020Z,98731.16
2022-09-27T10:55:58.057Z,98731.22
2022-09-27T10:58:27.196Z,98730.69
2022-09-27T11:00:55.262Z,98732.06
2022-09-27T11:03:22.606Z,98732.31
2022-09-27T11:05:49.505Z,98726.84
2022-09-27T11:08:19.046Z,98732.75
2022-09-27T11:11:00.530Z,98720.06
2022-09-27T11:13:32.498Z,98718.44
2022-09-27T11:16:11.670Z,98722.44
2022-09-27T11:18:47.534Z,98726.50
2022-09-27T11:21:24.974Z,98727.09
2022-09-27T11:24:00.735Z,98732.03
2022-09-27T11:26:34.224Z,98731.13
2022-09-27T11:29:21.570Z,98723.41
2022-09-27T11:31:48.307Z,98724.94
2022-09-27T11:34:36.816Z,98716.28
2022-09-27T11:37:12.380Z,98716.03
2022-09-27T11:39:51.538Z,98722.75
2022-09-27T11:42:27.355Z,98717.38
2022-09-27T11:45:34.135Z,98720.47
2022-09-27T11:48:22.854Z,98721.97
2022-09-27T11:51:27.974Z,98717.38
2022-09-27T11:53:54.593Z,98721.41
2022-09-27T11:56:30.322Z,98710.50
2022-09-27T11:59:22.464Z,98717.41
2022-09-27T12:01:57.024Z,98717.34
2022-09-27T12:04:26.563Z,98709.44
2022-09-27T12:06:59.001Z,98703.13
2022-09-27T12:09:30.728Z,98727.00
2022-09-27T12:12:00.076Z,98770.66
2022-09-27T12:14:34.600Z,98771.03
2022-09-27T12:17:03.121Z,98772.16
2022-09-27T12:19:32.933Z,98782.88
2022-09-27T12:22:02.573Z,98782.22
2022-09-27T12:24:30.734Z,98782.06
2022-09-27T12:27:04.054Z,98781.16
2022-09-27T12:29:34.183Z,98783.06
2022-09-27T12:32:19.786Z,98782.53
2022-09-27T12:34:52.022Z,98778.56
2022-09-27T12:37:21.555Z,98776.94
2022-09-27T12:39:57.639Z,98769.31
2022-09-27T12:42:42.686Z,98769.91
2022-09-27T12:45:22.519Z,98766.63
2022-09-27T12:48:22.515Z,98752.97
2022-09-27T12:50:55.207Z,98757.25
2022-09-27T12:53:28.332Z,98740.75
2022-09-27T12:56:11.916Z,98725.88
2022-09-27T12:58:38.637Z,98738.94
2022-09-27T13:01:15.356Z,98743.66
2022-09-27T13:03:53.763Z,98746.31
2022-09-27T13:06:57.195Z,98747.03
2022-09-27T13:09:31.967Z,98745.00
2022-09-27T13:12:01.564Z,98739.88
2022-09-27T13:14:30.760Z,98747.28
2022-09-27T13:16:57.523Z,98743.19
2022-09-27T13:19:36.447Z,98752.38
2022-09-27T13:22:05.272Z,98760.81
2022-09-27T13:24:41.030Z,98759.88
2022-09-27T13:27:23.265Z,98775.75
2022-09-27T13:29:50.565Z,98774.22
2022-09-27T13:32:17.251Z,98772.69
2022-09-27T13:35:04.257Z,98773.63
2022-09-27T13:37:44.718Z,98774.72
2022-09-27T13:40:15.988Z,98775.06
2022-09-27T13:42:55.923Z,98783.31
2022-09-27T13:45:29.497Z,98788.63
2022-09-27T13:47:58.951Z,98801.72
2022-09-27T13:50:34.490Z,98816.41
2022-09-27T13:53:04.341Z,98817.56
2022-09-27T13:55:47.689Z,98819.72
2022-09-27T13:58:20.541Z,98811.87
2022-09-27T14:00:51.830Z,98819.25
2022-09-27T14:03:23.204Z,98824.50
2022-09-27T14:05:55.529Z,98818.53
2022-09-27T14:08:22.404Z,98821.28
2022-09-27T14:10:49.143Z,98826.66
2022-09-27T14:13:20.722Z,98824.28
2022-09-27T14:15:48.481Z,98821.59
2022-09-27T14:18:15.410Z,98822.00
2022-09-27T14:20:46.581Z,98823.06
2022-09-27T14:23:18.221Z,98825.88
2022-09-27T14:25:46.847Z,98810.13
2022-09-27T14:28:24.346Z,98826.56
2022-09-27T14:31:10.383Z,98829.47
2022-09-27T14:33:37.197Z,98829.53
2022-09-27T14:36:25.047Z,98822.78
2022-09-27T14:38:52.095Z,98839.78
2022-09-27T14:41:18.881Z,98834.94
2022-09-27T14:43:46.531Z,98827.59
2022-09-27T14:46:27.691Z,98830.66
2022-09-27T14:48:55.673Z,98840.41
2022-09-27T14:51:32.242Z,98836.91
2022-09-27T14:54:01.649Z,98842.72
2022-09-27T14:56:32.407Z,98846.19
2022-09-27T14:59:02.838Z,98855.00
2022-09-27T15:01:30.310Z,98861.38
2022-09-27T15:04:07.515Z,98857.59
2022-09-27T15:06:37.975Z,98861.81
2022-09-27T15:09:06.381Z,98867.25
2022-09-27T15:11:34.995Z,98869.19
2022-09-27T15:14:03.968Z,98872.16
2022-09-27T15:16:31.587Z,98870.63
2022-09-27T15:19:19.148Z,98873.87
2022-09-27T15:21:45.982Z,98870.53
2022-09-27T15:24:31.335Z,98864.47
2022-09-27T15:26:58.752Z,98870.69
2022-09-27T15:29:26.080Z,98858.50
2022-09-27T15:31:59.800Z,98868.00
2022-09-27T15:34:27.830Z,98856.00
2022-09-27T15:37:00.977Z,98862.19
2022-09-27T15:39:29.374Z,98862.47
2022-09-27T15:42:10.241Z,98860.84
2022-09-27T15:44:39.805Z,98864.38
2022-09-27T15:47:26.361Z,98868.56
2022-09-27T15:49:53.611Z,98871.41
2022-09-27T15:52:39.284Z,98881.50
2022-09-27T15:55:06.267Z,98880.72
2022-09-27T15:57:33.093Z,98884.41
2022-09-27T15:59:59.907Z,98888.31
2022-09-27T16:02:26.695Z,98890.75
2022-09-27T16:04:53.314Z,98896.25
2022-09-27T16:07:19.935Z,98907.25
2022-09-27T16:09:49.485Z,98902.75
2022-09-27T16:12:16.374Z,98901.47
2022-09-27T16:14:43.116Z,98905.50
2022-09-27T16:17:10.429Z,98898.56
2022-09-27T16:19:37.061Z,98892.66
2022-09-27T16:22:03.856Z,98894.94
2022-09-27T16:24:31.767Z,98904.06
2022-09-27T16:26:59.145Z,98898.72
2022-09-27T16:29:26.287Z,98905.81
2022-09-27T16:31:53.881Z,98911.81
2022-09-27T16:34:20.558Z,98916.69
2022-09-27T16:36:49.270Z,98913.06
2022-09-27T16:39:16.075Z,98925.22
2022-09-27T16:41:43.771Z,98917.44
2022-09-27T16:44:12.757Z,98928.34
2022-09-27T16:46:40.159Z,98930.53
2022-09-27T16:49:26.788Z,98941.81
2022-09-27T16:52:02.315Z,98944.06
2022-09-27T16:54:29.671Z,98948.94
2022-09-27T16:56:56.850Z,98964.44
2022-09-27T16:59:25.723Z,98972.53
2022-09-27T17:01:52.894Z,98967.47
2022-09-27T17:04:19.603Z,98969.00
2022-09-27T17:06:46.762Z,98963.66
2022-09-27T17:09:13.409Z,98967.47
2022-09-27T17:11:40.397Z,98967.66
2022-09-27T17:14:07.093Z,98966.16
2022-09-27T17:16:33.730Z,98966.03
2022-09-27T17:19:00.411Z,98964.13
2022-09-27T17:21:27.017Z,98963.97
2022-09-27T17:23:53.830Z,98964.31
2022-09-27T17:26:22.285Z,98968.88
2022-09-27T17:28:50.081Z,98971.34
2022-09-27T17:31:18.012Z,98969.94
2022-09-27T17:33:46.388Z,98970.22
2022-09-27T17:36:19.234Z,98974.91
2022-09-27T17:38:46.919Z,98988.13
2022-09-27T17:43:51.956Z,98978.53
2022-09-27T17:46:19.947Z,98985.31
2022-09-27T17:49:06.009Z,98995.50
2022-09-27T17:51:33.608Z,98997.13
2022-09-27T17:54:00.312Z,99001.84
2022-09-27T17:56:27.108Z,99000.56
2022-09-27T17:58:54.700Z,98999.62
2022-09-27T18:01:23.052Z,99004.34
2022-09-27T18:03:52.844Z,99013.69
2022-09-27T18:06:21.598Z,99013.84
2022-09-27T18:08:48.422Z,99023.81
2022-09-27T18:11:16.886Z,99030.47
2022-09-27T18:13:44.250Z,99021.72
2022-09-27T18:16:12.275Z,99024.91
2022-09-27T18:18:42.066Z,99020.28
2022-09-27T18:21:14.183Z,99022.75
2022-09-27T18:23:41.413Z,99028.06
2022-09-27T18:26:09.008Z,99026.03
2022-09-27T18:28:37.023Z,99024.47
2022-09-27T18:31:08.413Z,99031.34
2022-09-27T18:33:35.637Z,99036.03
2022-09-27T18:36:05.891Z,99043.22
2022-09-27T18:38:33.167Z,99044.53
2022-09-27T18:41:19.164Z,99053.34
2022-09-27T18:43:47.047Z,99047.44
2022-09-27T18:46:34.609Z,99052.75
2022-09-27T18:49:06.314Z,99056.94
2022-09-27T18:51:33.616Z,99061.75
2022-09-27T18:54:01.309Z,99070.31
2022-09-27T18:56:28.422Z,99078.78
2022-09-27T18:58:55.128Z,99081.69
2022-09-27T19:01:25.000Z,99092.94
2022-09-27T19:03:52.062Z,99105.75
2022-09-27T19:06:19.868Z,99109.09
2022-09-27T19:08:49.756Z,99099.75
2022-09-27T19:11:17.431Z,99093.84
2022-09-27T19:13:51.127Z,99090.34
2022-09-27T19:16:18.608Z,99093.16
2022-09-27T19:18:45.460Z,99097.22
2022-09-27T19:21:13.569Z,99099.69
2022-09-27T19:23:40.846Z,99102.16
2022-09-27T19:26:08.639Z,99112.41
2022-09-27T19:28:36.321Z,99107.63
2022-09-27T19:31:07.274Z,99113.59
2022-09-27T19:33:34.764Z,99114.16
2022-09-27T19:36:02.276Z,99108.13
2022-09-27T19:38:32.586Z,99112.00
2022-09-27T19:40:59.848Z,99116.06
2022-09-27T19:43:26.559Z,99119.56
2022-09-27T19:45:53.615Z,99120.66
2022-09-27T19:48:20.572Z,99119.81
2022-09-27T19:50:57.673Z,99113.19
2022-09-27T19:53:27.692Z,99116.00
2022-09-27T19:56:02.270Z,99108.97
2022-09-27T19:58:29.839Z,99100.69
2022-09-27T20:01:00.784Z,99095.00
2022-09-27T20:03:28.112Z,99093.06
2022-09-27T20:05:55.180Z,99093.53
2022-09-27T20:08:22.130Z,99093.75
2022-09-27T20:11:06.094Z,99087.22
2022-09-27T20:13:33.495Z,99072.44
2022-09-27T20:16:03.588Z,99068.72
2022-09-27T20:18:30.416Z,99065.53
2022-09-27T20:21:03.933Z,99054.53
2022-09-27T20:23:31.790Z,99046.88
2022-09-27T20:26:01.811Z,99064.16
2022-09-27T20:28:28.646Z,99070.59
2022-09-27T20:30:56.268Z,99089.66
2022-09-27T20:33:41.356Z,99096.16
2022-09-27T20:36:08.852Z,99107.38
2022-09-27T20:38:35.662Z,99108.25
2022-09-27T20:41:02.308Z,99110.91
2022-09-27T20:43:28.878Z,99113.47
2022-09-27T20:45:59.885Z,99112.53
2022-09-27T20:48:26.519Z,99122.44
2022-09-27T20:50:59.351Z,99106.56
2022-09-27T20:53:28.333Z,99110.09
2022-09-27T20:55:55.758Z,99111.56
2022-09-27T20:58:23.029Z,99109.41
2022-09-27T21:00:50.052Z,99109.41
2022-09-27T21:03:21.494Z,99114.34
2022-09-27T21:05:55.269Z,99104.19
2022-09-27T21:08:21.865Z,99112.25
2022-09-27T21:10:52.705Z,99111.22
2022-09-27T21:13:19.967Z,99108.66
2022-09-27T21:15:47.110Z,99104.75
2022-09-27T21:18:13.934Z,99113.94
2022-09-27T21:20:41.068Z,99109.59
2022-09-27T21:23:07.706Z,99113.00
2022-09-27T21:25:34.454Z,99114.94
2022-09-27T21:28:04.469Z,99107.09
2022-09-27T21:30:31.223Z,99105.94
2022-09-27T21:32:57.948Z,99114.84
2022-09-27T21:35:24.733Z,99122.78
2022-09-27T21:37:51.362Z,99125.34
2022-09-27T21:40:18.159Z,99113.75
2022-09-27T21:42:44.934Z,99120.78
2022-09-27T21:45:11.773Z,99126.41
2022-09-27T21:47:38.330Z,99134.84
2022-09-27T21:50:05.088Z,99127.44
2022-09-27T21:52:31.732Z,99140.19
2022-09-27T21:54:58.293Z,99147.13
2022-09-27T21:57:24.863Z,99144.94
2022-09-27T21:59:51.672Z,99156.78
2022-09-27T22:02:19.492Z,99166.28
2022-09-27T22:04:46.184Z,99167.63
2022-09-27T22:07:12.800Z,99165.28
2022-09-27T22:09:39.514Z,99166.56
2022-09-27T22:12:06.465Z,99158.47
2022-09-27T22:14:34.425Z,99173.78
2022-09-27T22:17:00.965Z,99163.78
2022-09-27T22:19:27.625Z,99159.34
2022-09-27T22:21:54.215Z,99162.69
2022-09-27T22:24:20.885Z,99166.84
2022-09-27T22:26:49.526Z,99159.25
2022-09-27T22:29:16.402Z,99154.25
2022-09-27T22:31:43.366Z,99157.31
2022-09-27T22:34:16.576Z,99159.16
2022-09-27T22:36:43.755Z,99160.56
2022-09-27T22:39:10.501Z,99160.69
2022-09-27T22:41:37.213Z,99150.75
2022-09-27T22:44:03.848Z,99160.25
2022-09-27T22:46:30.571Z,99158.38
2022-09-27T22:48:57.324Z,99151.75
2022-09-27T22:51:24.114Z,99139.75
2022-09-27T22:53:50.706Z,99147.34
2022-09-27T22:56:18.998Z,99159.72
2022-09-27T22:58:47.410Z,99144.00
2022-09-27T23:01:16.785Z,99149.47
2022-09-27T23:03:44.136Z,99155.41
2022-09-27T23:06:10.896Z,99154.91
2022-09-27T23:08:38.260Z,99143.44
2022-09-27T23:11:12.661Z,99152.81
2022-09-27T23:13:40.315Z,99147.00
2022-09-27T23:16:08.102Z,99147.22
2022-09-27T23:18:34.977Z,99141.69
2022-09-27T23:21:03.408Z,99139.47
2022-09-27T23:23:31.223Z,99141.13
2022-09-27T23:25:59.155Z,99141.84
2022-09-27T23:28:26.135Z,99143.34
2022-09-27T23:30:52.700Z,99138.91
2022-09-27T23:33:19.367Z,99144.00
2022-09-27T23:35:47.092Z,99145.22
2022-09-27T23:38:14.765Z,99151.41
2022-09-27T23:40:42.015Z,99153.91
2022-09-27T23:43:09.255Z,99146.22
2022-09-27T23:45:36.669Z,99150.59
2022-09-27T23:48:04.228Z,99150.59
2022-09-27T23:50:32.616Z,99143.19
2022-09-27T23:52:59.655Z,99146.13
2022-09-27T23:55:26.393Z,99150.75
2022-09-27T23:57:52.946Z,99152.59
